sensor_id;sensor_type;location;lat;lon;timestamp;P1;durP1;ratioP1;P2;durP2;ratioP2
66575;SDS011;53428;47.686;16.584;2022-07-29T00:00:24;6.45;;;5.07;;
66575;SDS011;53428;47.686;16.584;2022-07-29T00:05:23;8.52;;;5.82;;
66575;SDS011;53428;47.686;16.584;2022-07-29T00:10:23;10.60;;;5.25;;
66575;SDS011;53428;47.686;16.584;2022-07-29T00:15:22;6.68;;;5.10;;
66575;SDS011;53428;47.686;16.584;2022-07-29T00:20:22;5.93;;;4.80;;
66575;SDS011;53428;47.686;16.584;2022-07-29T00:25:21;7.25;;;5.72;;
66575;SDS011;53428;47.686;16.584;2022-07-29T00:30:21;6.22;;;5.40;;
66575;SDS011;53428;47.686;16.584;2022-07-29T00:35:20;10.10;;;5.80;;
66575;SDS011;53428;47.686;16.584;2022-07-29T00:40:38;6.53;;;5.10;;
66575;SDS011;53428;47.686;16.584;2022-07-29T00:45:37;6.90;;;5.78;;
66575;SDS011;53428;47.686;16.584;2022-07-29T00:50:37;8.45;;;5.53;;
66575;SDS011;53428;47.686;16.584;2022-07-29T00:55:37;9.10;;;6.13;;
66575;SDS011;53428;47.686;16.584;2022-07-29T01:00:36;5.57;;;5.07;;
66575;SDS011;53428;47.686;16.584;2022-07-29T01:05:36;7.00;;;5.32;;
66575;SDS011;53428;47.686;16.584;2022-07-29T01:10:36;5.70;;;5.05;;
66575;SDS011;53428;47.686;16.584;2022-07-29T01:15:38;9.90;;;4.88;;
66575;SDS011;53428;47.686;16.584;2022-07-29T01:26:20;7.13;;;5.90;;
66575;SDS011;53428;47.686;16.584;2022-07-29T01:31:24;5.85;;;5.35;;
66575;SDS011;53428;47.686;16.584;2022-07-29T01:36:43;6.90;;;4.93;;
66575;SDS011;53428;47.686;16.584;2022-07-29T01:41:52;12.05;;;5.57;;
66575;SDS011;53428;47.686;16.584;2022-07-29T01:47:15;9.18;;;6.38;;
66575;SDS011;53428;47.686;16.584;2022-07-29T01:52:38;7.07;;;5.80;;
66575;SDS011;53428;47.686;16.584;2022-07-29T01:57:48;8.77;;;5.60;;
66575;SDS011;53428;47.686;16.584;2022-07-29T02:02:48;10.23;;;5.75;;
66575;SDS011;53428;47.686;16.584;2022-07-29T02:07:49;5.80;;;5.20;;
66575;SDS011;53428;47.686;16.584;2022-07-29T02:12:50;8.20;;;6.00;;
66575;SDS011;53428;47.686;16.584;2022-07-29T02:18:00;6.55;;;5.57;;
66575;SDS011;53428;47.686;16.584;2022-07-29T02:23:02;7.47;;;4.68;;
66575;SDS011;53428;47.686;16.584;2022-07-29T02:28:02;8.57;;;7.32;;
66575;SDS011;53428;47.686;16.584;2022-07-29T02:33:04;8.23;;;6.07;;
66575;SDS011;53428;47.686;16.584;2022-07-29T02:38:05;8.63;;;6.40;;
66575;SDS011;53428;47.686;16.584;2022-07-29T02:43:25;10.18;;;6.90;;
66575;SDS011;53428;47.686;16.584;2022-07-29T02:48:31;9.20;;;6.43;;
66575;SDS011;53428;47.686;16.584;2022-07-29T02:53:36;9.70;;;7.80;;
66575;SDS011;53428;47.686;16.584;2022-07-29T02:58:38;9.52;;;7.47;;
66575;SDS011;53428;47.686;16.584;2022-07-29T03:03:40;10.45;;;7.00;;
66575;SDS011;53428;47.686;16.584;2022-07-29T03:08:43;11.00;;;8.63;;
66575;SDS011;53428;47.686;16.584;2022-07-29T03:13:44;9.07;;;7.13;;
66575;SDS011;53428;47.686;16.584;2022-07-29T03:18:48;12.55;;;7.47;;
66575;SDS011;53428;47.686;16.584;2022-07-29T03:23:48;11.35;;;7.35;;
66575;SDS011;53428;47.686;16.584;2022-07-29T03:28:47;9.63;;;6.88;;
66575;SDS011;53428;47.686;16.584;2022-07-29T03:33:47;10.90;;;7.55;;
66575;SDS011;53428;47.686;16.584;2022-07-29T03:38:46;10.90;;;7.15;;
66575;SDS011;53428;47.686;16.584;2022-07-29T03:43:47;9.93;;;7.57;;
66575;SDS011;53428;47.686;16.584;2022-07-29T03:48:48;9.18;;;7.00;;
66575;SDS011;53428;47.686;16.584;2022-07-29T03:53:52;15.23;;;7.72;;
66575;SDS011;53428;47.686;16.584;2022-07-29T03:58:51;10.05;;;6.60;;
66575;SDS011;53428;47.686;16.584;2022-07-29T04:03:52;12.95;;;7.68;;
66575;SDS011;53428;47.686;16.584;2022-07-29T04:08:51;8.95;;;6.18;;
66575;SDS011;53428;47.686;16.584;2022-07-29T04:13:51;14.00;;;7.65;;
66575;SDS011;53428;47.686;16.584;2022-07-29T04:18:50;10.27;;;6.97;;
66575;SDS011;53428;47.686;16.584;2022-07-29T04:23:50;11.00;;;6.80;;
66575;SDS011;53428;47.686;16.584;2022-07-29T04:33:53;8.50;;;5.60;;
66575;SDS011;53428;47.686;16.584;2022-07-29T04:38:53;8.30;;;6.13;;
66575;SDS011;53428;47.686;16.584;2022-07-29T04:43:52;13.15;;;6.25;;
66575;SDS011;53428;47.686;16.584;2022-07-29T04:48:56;8.90;;;6.18;;
66575;SDS011;53428;47.686;16.584;2022-07-29T04:53:55;8.07;;;6.05;;
66575;SDS011;53428;47.686;16.584;2022-07-29T04:58:54;7.38;;;5.95;;
66575;SDS011;53428;47.686;16.584;2022-07-29T05:03:54;9.00;;;6.47;;
66575;SDS011;53428;47.686;16.584;2022-07-29T05:08:53;8.95;;;6.35;;
66575;SDS011;53428;47.686;16.584;2022-07-29T05:13:52;10.55;;;6.60;;
66575;SDS011;53428;47.686;16.584;2022-07-29T05:18:52;8.73;;;6.65;;
66575;SDS011;53428;47.686;16.584;2022-07-29T05:23:51;9.40;;;6.93;;
66575;SDS011;53428;47.686;16.584;2022-07-29T05:28:51;9.43;;;6.78;;
66575;SDS011;53428;47.686;16.584;2022-07-29T05:33:50;7.70;;;6.88;;
66575;SDS011;53428;47.686;16.584;2022-07-29T05:38:49;9.57;;;7.57;;
66575;SDS011;53428;47.686;16.584;2022-07-29T05:43:51;14.35;;;7.72;;
66575;SDS011;53428;47.686;16.584;2022-07-29T05:48:50;8.98;;;7.03;;
66575;SDS011;53428;47.686;16.584;2022-07-29T05:53:50;10.23;;;7.22;;
66575;SDS011;53428;47.686;16.584;2022-07-29T05:58:49;10.77;;;7.30;;
66575;SDS011;53428;47.686;16.584;2022-07-29T06:03:49;11.85;;;6.95;;
66575;SDS011;53428;47.686;16.584;2022-07-29T06:08:48;7.18;;;6.47;;
66575;SDS011;53428;47.686;16.584;2022-07-29T06:13:48;11.13;;;7.15;;
66575;SDS011;53428;47.686;16.584;2022-07-29T06:18:47;7.72;;;6.72;;
66575;SDS011;53428;47.686;16.584;2022-07-29T06:23:46;7.22;;;5.22;;
66575;SDS011;53428;47.686;16.584;2022-07-29T06:28:46;10.68;;;6.55;;
66575;SDS011;53428;47.686;16.584;2022-07-29T06:33:45;11.18;;;6.15;;
66575;SDS011;53428;47.686;16.584;2022-07-29T06:38:44;11.00;;;6.53;;
66575;SDS011;53428;47.686;16.584;2022-07-29T06:43:44;9.95;;;6.03;;
66575;SDS011;53428;47.686;16.584;2022-07-29T06:48:44;6.43;;;5.70;;
66575;SDS011;53428;47.686;16.584;2022-07-29T06:53:46;12.15;;;6.30;;
66575;SDS011;53428;47.686;16.584;2022-07-29T06:58:45;10.40;;;5.80;;
66575;SDS011;53428;47.686;16.584;2022-07-29T07:03:45;6.30;;;5.70;;
66575;SDS011;53428;47.686;16.584;2022-07-29T07:08:44;8.55;;;5.55;;
66575;SDS011;53428;47.686;16.584;2022-07-29T07:13:44;11.50;;;5.35;;
66575;SDS011;53428;47.686;16.584;2022-07-29T07:18:43;11.50;;;5.47;;
66575;SDS011;53428;47.686;16.584;2022-07-29T18:35:28;6.25;;;4.55;;
66575;SDS011;53428;47.686;16.584;2022-07-29T18:40:28;6.78;;;4.63;;
66575;SDS011;53428;47.686;16.584;2022-07-29T18:45:27;8.85;;;4.50;;
66575;SDS011;53428;47.686;16.584;2022-07-29T18:50:27;5.53;;;4.80;;
66575;SDS011;53428;47.686;16.584;2022-07-29T18:55:26;5.10;;;4.60;;
66575;SDS011;53428;47.686;16.584;2022-07-29T19:00:26;6.55;;;5.20;;
66575;SDS011;53428;47.686;16.584;2022-07-29T19:05:25;9.70;;;5.18;;
66575;SDS011;53428;47.686;16.584;2022-07-29T19:10:24;6.93;;;5.20;;
66575;SDS011;53428;47.686;16.584;2022-07-29T19:15:24;10.23;;;4.85;;
66575;SDS011;53428;47.686;16.584;2022-07-29T19:20:24;6.80;;;5.55;;
66575;SDS011;53428;47.686;16.584;2022-07-29T19:25:23;7.22;;;5.28;;
66575;SDS011;53428;47.686;16.584;2022-07-29T19:30:23;7.28;;;5.60;;
66575;SDS011;53428;47.686;16.584;2022-07-29T19:35:22;9.50;;;5.85;;
66575;SDS011;53428;47.686;16.584;2022-07-29T19:40:21;6.32;;;5.28;;
66575;SDS011;53428;47.686;16.584;2022-07-29T19:45:21;6.38;;;5.63;;
66575;SDS011;53428;47.686;16.584;2022-07-29T19:50:23;14.55;;;6.03;;
66575;SDS011;53428;47.686;16.584;2022-07-29T19:55:23;9.55;;;5.20;;
66575;SDS011;53428;47.686;16.584;2022-07-29T20:00:22;8.18;;;6.13;;
66575;SDS011;53428;47.686;16.584;2022-07-29T20:05:22;8.07;;;6.13;;
66575;SDS011;53428;47.686;16.584;2022-07-29T20:10:24;10.35;;;6.13;;
66575;SDS011;53428;47.686;16.584;2022-07-29T20:15:23;13.82;;;7.00;;
66575;SDS011;53428;47.686;16.584;2022-07-29T20:20:23;8.77;;;6.32;;
66575;SDS011;53428;47.686;16.584;2022-07-29T20:25:23;11.60;;;6.45;;
66575;SDS011;53428;47.686;16.584;2022-07-29T20:30:22;12.25;;;6.85;;
66575;SDS011;53428;47.686;16.584;2022-07-29T20:35:21;9.95;;;7.03;;
66575;SDS011;53428;47.686;16.584;2022-07-29T20:40:21;10.23;;;6.80;;
66575;SDS011;53428;47.686;16.584;2022-07-29T20:45:21;9.48;;;7.45;;
66575;SDS011;53428;47.686;16.584;2022-07-29T20:50:21;11.65;;;7.65;;
66575;SDS011;53428;47.686;16.584;2022-07-29T20:55:22;8.43;;;7.20;;
66575;SDS011;53428;47.686;16.584;2022-07-29T21:00:21;8.88;;;7.82;;
66575;SDS011;53428;47.686;16.584;2022-07-29T21:05:21;10.43;;;7.20;;
66575;SDS011;53428;47.686;16.584;2022-07-29T21:10:20;10.27;;;7.28;;
66575;SDS011;53428;47.686;16.584;2022-07-29T21:15:20;16.92;;;7.93;;
66575;SDS011;53428;47.686;16.584;2022-07-29T21:20:20;14.32;;;8.55;;
66575;SDS011;53428;47.686;16.584;2022-07-29T21:25:19;9.93;;;8.15;;
66575;SDS011;53428;47.686;16.584;2022-07-29T21:30:22;10.43;;;7.70;;
66575;SDS011;53428;47.686;16.584;2022-07-29T21:35:21;9.90;;;7.95;;
66575;SDS011;53428;47.686;16.584;2022-07-29T21:40:21;8.43;;;7.45;;
66575;SDS011;53428;47.686;16.584;2022-07-29T21:45:20;11.25;;;7.97;;
66575;SDS011;53428;47.686;16.584;2022-07-29T21:50:19;10.93;;;7.97;;
66575;SDS011;53428;47.686;16.584;2022-07-29T21:55:19;10.18;;;7.95;;
66575;SDS011;53428;47.686;16.584;2022-07-29T22:00:19;11.50;;;7.88;;
66575;SDS011;53428;47.686;16.584;2022-07-29T22:05:19;9.15;;;7.78;;
66575;SDS011;53428;47.686;16.584;2022-07-29T22:10:18;7.60;;;6.60;;
66575;SDS011;53428;47.686;16.584;2022-07-29T22:15:18;9.63;;;8.68;;
66575;SDS011;53428;47.686;16.584;2022-07-29T22:20:18;7.32;;;6.45;;
66575;SDS011;53428;47.686;16.584;2022-07-29T22:25:18;9.48;;;7.43;;
66575;SDS011;53428;47.686;16.584;2022-07-29T22:30:17;10.48;;;8.07;;
66575;SDS011;53428;47.686;16.584;2022-07-29T22:35:16;11.38;;;7.35;;
66575;SDS011;53428;47.686;16.584;2022-07-29T22:40:16;8.63;;;7.25;;
66575;SDS011;53428;47.686;16.584;2022-07-29T22:45:15;8.55;;;6.32;;
66575;SDS011;53428;47.686;16.584;2022-07-29T22:50:15;10.10;;;6.93;;
66575;SDS011;53428;47.686;16.584;2022-07-29T22:55:15;11.93;;;7.22;;
66575;SDS011;53428;47.686;16.584;2022-07-29T23:00:14;7.50;;;6.15;;
66575;SDS011;53428;47.686;16.584;2022-07-29T23:05:13;6.93;;;5.88;;
66575;SDS011;53428;47.686;16.584;2022-07-29T23:10:13;6.88;;;5.97;;
66575;SDS011;53428;47.686;16.584;2022-07-29T23:15:12;7.60;;;5.93;;
66575;SDS011;53428;47.686;16.584;2022-07-29T23:20:12;12.95;;;7.57;;
66575;SDS011;53428;47.686;16.584;2022-07-29T23:25:11;7.40;;;6.68;;
66575;SDS011;53428;47.686;16.584;2022-07-29T23:30:11;8.35;;;7.32;;
66575;SDS011;53428;47.686;16.584;2022-07-29T23:35:10;8.25;;;6.93;;
66575;SDS011;53428;47.686;16.584;2022-07-29T23:40:10;10.02;;;7.00;;
66575;SDS011;53428;47.686;16.584;2022-07-29T23:45:10;9.77;;;6.68;;
66575;SDS011;53428;47.686;16.584;2022-07-29T23:50:11;8.48;;;6.50;;
66575;SDS011;53428;47.686;16.584;2022-07-29T23:55:10;7.68;;;6.47;;
